UVAGARNER FIELD
METARs for nearby airports:
N 0 941' KUVA 212335Z 14006KT 10SM CLR 31/09 A2965
E 30 930' KHDO 212251Z 17007KT 10SM CLR 32/11 A2966
S 41 598' KCZT 212335Z 08005KT 10SM CLR 33/09 A2960
E 47 773' KCVB 212335Z 14005KT 7SM CLR 32/09 A2966
NW 49 2372' KECU 212335Z 22007G14KT 10SM CLR 29/02 A2974
SE 53 474' KCOT 212253Z 13011KT 10SM CLR 34/11 A2962
W 54 1081' KDLF 212236Z 13008KT 10SM FEW200 29/09 A2964
NE 57 1616' KERV 212335Z 14005KT 10SM CLR 30/05 A2969
E 61 690' KSKF 212156Z VRB03KT 10SM FEW250 31/11 A2964
W 62 1002' KDRT 212253Z 16007KT 10SM CLR 32/09 A2962
E 66 430' KPEZ 212335Z 09007KT 10SM CLR 31/15 A2965
E 67 577' KSSF 212253Z 08007KT 10SM CLR 32/12 A2963
E 69 809' KSAT 212251Z 00000KT 10SM FEW250 32/10 A2966
N 78 1753' KJCT 212251Z 28006KT 8SM CLR 31/02 A2968
E 79 762' KRND 212256Z 11006KT 10SM CLR 30/16 A2966
E 93 658' KBAZ 212251Z 10008KT 10SM CLR 31/14 A2964
NW 95 2139' KSOA 212335Z 22006KT 10SM CLR 30/M01 A2969
TAFs for nearby airports:
SE 53 474' KCOT TAF KCOT 212337Z 2200/2224 12009KT P6SM SCT250
  FM220900 13008KT P6SM OVC015
  FM221700 15014G20KT P6SM BKN025
  FM222000 15018G24KT P6SM SCT035
W 54 1081' KDLF TAF
  AMD KDLF 212201Z 2122/2224 12009KT 9999 SKC QNH2961INS
  BECMG 2206/2207 12006KT 9999 SCT020 QNH2965INS
  BECMG 2211/2212 12009KT 9999 BKN012 OVC020 QNH2970INS
  BECMG 2214/2215 13012KT 9999 OVC012 530053 QNH2971INS
  BECMG 2215/2216 13010G15KT 9999 SCT013 BKN029 QNH2974INS
  BECMG 2217/2218 15012G18KT 9999 SCT029 QNH2972INS TX33/2122Z TN20/2209Z
E 61 690' KSKF TAF KSKF 211812Z 2118/2224 01010KT 9999 SCT100 SCT250 QNH2964INS
  BECMG 2120/2121 02009KT 9999 SCT050 SCT200 QNH2962INS
  BECMG 2206/2207 06008KT 8000 BR BKN010 QNH2967INS
  BECMG 2212/2213 12010G15KT 8000 BR SCT010 QNH2974INS
  BECMG 2216/2217 14012G20KT 9999 NSW SCT030 520053 QNH2969INS TX34/2121Z TN22/2206Z
W 62 1002' KDRT TAF KDRT 212331Z 2200/2224 12007KT P6SM FEW250
  FM221200 12009KT P6SM OVC012
  FM221600 13011KT P6SM BKN025
  FM221800 13013KT P6SM SKC
E 67 577' KSSF TAF KSSF 212331Z 2200/2224 11006KT P6SM FEW250
  FM220700 12007KT P6SM OVC012
  TEMPO 2207/2211 BKN009
  FM221500 15012KT P6SM BKN012
  FM221700 15012G22KT P6SM BKN025
  FM221900 14012G22KT P6SM SCT040
E 69 809' KSAT TAF KSAT 212331Z 2200/2306 11006KT P6SM FEW250
  FM220700 13008KT P6SM OVC008
  FM221500 15014KT P6SM BKN012
  FM221700 15014G24KT P6SM BKN025
  FM221900 15014G24KT P6SM SCT040
  FM230300 13016KT P6SM BKN015
N 78 1753' KJCT KJCT 212337Z 2200/2224 27006KT P6SM SKC
  FM220100 20006KT P6SM SKC
  FM221000 16007KT P6SM BKN015
  FM221600 17012G20KT P6SM BKN020
  FM221900 17015G23KT P6SM SCT035
E 79 762' KRND TAF TAF KRND 211700Z 2117/2223 36012G18KT 9999 SCT055 QNH2964INS
  BECMG 2121/2122 33012KT 9999 FEW080 QNH2963INS
  BECMG 2201/2202 VRB06KT 9999 FEW065 QNH2966INS
  BECMG 2208/2209 15009KT 9999 BKN015 510152 QNH2967INS
  BECMG 2212/2213 17012KT 9000 BR OVC008 510152 QNH2974INS
  BECMG 2214/2215 16015G25KT 9999 NSW SCT010 510103 QNH2971INS TX35/2122Z TN21/2212Z LAST NO
  AMDS AFT 2200 NEXT 2209
NW 95 2139' KSOA KSOA 212337Z 2200/2224 17005KT P6SM SKC
  FM221000 17010KT P6SM BKN012
  FM221500 17013G21KT P6SM BKN015
  FM221800 18013G22KT P6SM SCT020 BKN250
Area forecast:
000
FAUS44 KKCI 101845
FA4W  
DFWC FA 101845
SYNOPSIS AND VFR CLDS/WX
SYNOPSIS VALID UNTIL 111300
CLDS/WX VALID UNTIL 110700...OTLK VALID 110700-111300
OK TX AR TN LA MS AL
.
SEE AIRMET SIERRA FOR IFR CONDS AND MTN OBSCN.
TS IMPLY SEV OR GTR TURB SEV ICE LLWS AND IFR CONDS.
NON MSL HGTS DENOTED BY AGL OR CIG.
.
SYNOPSIS...LOW PRES OVR SERN MO WITH CDFNT THRU ERN AR-NERN
LA-NWRN GLFMEX. BY 13Z LOW OVR SERN IN WITH CDFNT THRU E MIDDLE
TN-NERN AL-SERN MA-SERN LA-NWRN GLFMEX.
.
OK
PNHDL-W...SKC. TIL 22Z OCNL SCT060 WND N G25KT. OTLK...VFR.
CNTRL-SE....SCT-BKN040 TOP 100. 22Z SCT040. 02Z SKC. OTLK...VFR.
NERN...BKN030 TOP 060. 22Z SCT-BKN040. 01Z SCT040. OTLK...XTRM
NERN MVFR BR ELSW VFR.
.
NWRN TX
PNHDL...SKC. OTLK...VFR.
S PLAINS...SCT150. S PTN OCNL SCT070. 22Z N PTN SKC. 02Z S PTN
SKC. OTLK...VFR.
.
SWRN TX
MTNS WWD...
N PTN.. SCT120 SCT CI. 01Z SKC. OTLK...VFR.
S PTN..BKN090 TOP 120. 23Z SCT080-100. OTLK...VFR.
RMNDR...
W PTN..SCT-BKN080 TOP 140. 23Z SCT080. OTLK...VFR.
E PTN..BKN050-070 TOP 150. ISOL -SHRA. 02Z N PTN SCT080. S PTN
BKN060 TOP 160. OTLK...VFR.
.
N CNTRL TX
SCT060-080 SCT CI. 23Z SCT120-140. OTLK...VFR.
.
NERN TX
SCT025 SCT-BKN060 TOP 120. 23Z SCT120-140. OTLK...VFR.
.
SERN TX
CSTL SXNS...BKN025 TOP 160. CSTLN ISOL -TSRA. CB TOP FL400.
23Z SCT025 SCT-BKN060 TOP 120. 03Z SCT040. OTLK...VFR.
INLAND...SCT040 SCT140 SCT-BKN CI. 01Z SCT150 SCT CI. OTLK...VFR.
.
S CNTRL TX
CSTL PLAINS-LWR RIOGD...
VCNTY CSTLN..BKN020 TOP FL180. WDLY SCT -SHRA/ISOL -TSRA. CB TOP
FL450. BECMG 2123 BKN020 TOP 140.  05Z BKN040. OTLK...VFR.
INLAND..BKN035 TOP 120. BECMG 0305 BKN040 TOP 100. OTLK...VFR.
HILL COUNTRY...BKN070 TOP FL200. 23Z SCT070 BKN120. 03Z SCT070
SCT120. OTLK...VFR.
RMNDR...
N PTN..BKN040 TOP 120. 23Z SCT-BKN050 TOP 100. 03Z SCT060 SCT CI.
OTLK...VFR.
S PTN..BKN030 TOP 160. TIL 21Z WDLY SCT -SHRA. OTLK...MVFR CIG.
.
AR
NW...OVC030 TOP FL180. BECMG 0204 SCT030. OTLK...XTRM N MVFR CIG
09Z IFR CIG BR ELSW VFR.
SW...SCT030 SCT140. 00Z SCT100 SCT CI. OTLK...VFR.
E HLF...BKN040 TOP 160. ISOL -TSRA. CB TOP FL420. 01Z SCT030
SCT120. OTLK...VFR 09Z MVFR BR.
.
LA
N-CNTRL...SCT025 SCT-BKN050 TOP 100. 21Z E PTN TOP 140. ISOL
-TSRA. CB TOP FL450. 02Z SCT CI. OTLK...VFR.
S...BKN-SCT025 BKN050 TOP FL210. WDLY SCT -SHRA/ISOL -TSRA. CB
TOP FL450. BECMG 0204 SCT025 SCT140 SCT-BKN CI. OTLK...W PTN VFR
10Z MVFR CIG BR E PTN MVFR BR 10Z IFR CIG BR.
.
TN
W...BKN040 TOP 160. ISOL -TSRA. CB TOP FL420. BECMG 0103
BKN-SCT025 TOP 120. OTLK...MVFR CIG BR.
MIDDLE...OVC030 TOP FL200. WDLY SCT -SHRA/TSRA. CB TOP FL450. 00Z
BKN040 TOP 140. WDLY SCT -SHRA/ISOL -TSRA. CB TOP FL420.
05Z OCNL VIS 3SM BR. OTLK...MVFR CIG BR 09Z IFR CIG BR.
E...SCT025 BKN040 TOP FL250. WDLY SCT -SHRA/TSRA. CB TOP FL450.
BECMG 0305 BKN040. WDLY SCT -SHRA. OCNL VIS 3SM BR. OTLK...MVFR
CIG SHRA BR 09Z IFR CIG BR.
.
MS AL
N-CNTRL PTN...
W MS..BKN-SCT040 TOP 140. ISOL -SHRA/TSRA. CB TOP FL420.
BECMG 0204 BKN035 TOP 100. OTLK...MVFR CIG BR.
ELSW..BKN-SCT025 BKN040 TOP FL240. WDLY SCT -SHRA/TSRA. CB TOP
FL450. BECMG 0002 BKN040 TOP 140. ISOL -SHRA/TSRA.
06Z BKN010-020 TOP 060. OCNL VIS 3SM BR. OTLK...MVFR CIG BR
09Z IFR CIG BR.
S PTN...BKN025 TOP FL220. WDLY SCT -SHRA. ISOL -TSRA. CB TOP
FL450. BECMG 0305 SCT020 SCT100. OCNL VIS 3SM BR. OTLK...MVFR BR
09Z IFR CIG BR.
.
THE AREA FORECAST WILL TERMINATE AT 2359Z ON 10 OCTOBER 2017. IN
PLACE OF THE AREA FORECAST PLEASE SEE THE GRAPHICAL FORECAST AT
WWW.AVIATIONWEATHER.GOV/GFA. GRAPHICAL AND TEXT AIRMETS WILL
CONTINUE AS REGULARLY SCHEDULED.
....

Shortcut to this page: http://wxbay.com.

Data may contain errors.